Tekakwitha, South Dakota
Current Conditions -  °F | °C
As of 1:36 AM on Wednesday 26 Nov 2014 (Local Time) from KETH Reporting Station
Light Snow Light Snow  
Wind Chill: 10°   Ceiling: 3900
Heat Index: 21°   Visibility: 10mi
Dew Point: 16°   Wind: 10mph
Humidity: 80%   Direction: 10°N
Pressure: 30.03"   Gusts: 16mph
Location:  45.7041°N, 96.9842°W
Report Text: KETH 260736Z AUTO 01009G14KT 10SM -SN BKN039 OVC065 M06/M09 A3003 RMK AO2
Loading
Personal Weather Stations






























Interactive Weather Map New forecast layout! Learn more

10-Day Weather Forecast

Advertisements
Track Severe Weather on mobile